sensor_id;sensor_type;location;lat;lon;timestamp;temperature;humidity
1812;DHT22;904;47.814;11.134;2022-10-28T00:01:10;11.90;90.90
1812;DHT22;904;47.814;11.134;2022-10-28T00:03:39;11.90;90.50
1812;DHT22;904;47.814;11.134;2022-10-28T00:06:08;11.90;90.40
1812;DHT22;904;47.814;11.134;2022-10-28T00:08:36;11.90;90.40
1812;DHT22;904;47.814;11.134;2022-10-28T00:11:05;11.90;90.50
1812;DHT22;904;47.814;11.134;2022-10-28T00:13:35;11.90;90.60
1812;DHT22;904;47.814;11.134;2022-10-28T00:16:07;11.80;90.60
1812;DHT22;904;47.814;11.134;2022-10-28T00:18:35;11.80;90.50
1812;DHT22;904;47.814;11.134;2022-10-28T00:21:05;11.80;90.40
1812;DHT22;904;47.814;11.134;2022-10-28T00:23:32;11.70;90.20
1812;DHT22;904;47.814;11.134;2022-10-28T00:26:10;11.70;90.00
1812;DHT22;904;47.814;11.134;2022-10-28T00:28:43;11.60;90.20
1812;DHT22;904;47.814;11.134;2022-10-28T00:31:13;11.50;90.30
1812;DHT22;904;47.814;11.134;2022-10-28T00:33:40;11.40;90.20
1812;DHT22;904;47.814;11.134;2022-10-28T00:36:09;11.40;90.40
1812;DHT22;904;47.814;11.134;2022-10-28T00:38:37;11.40;90.70
1812;DHT22;904;47.814;11.134;2022-10-28T00:41:04;11.40;90.80
1812;DHT22;904;47.814;11.134;2022-10-28T00:43:37;11.40;91.00
1812;DHT22;904;47.814;11.134;2022-10-28T00:46:15;11.40;90.90
1812;DHT22;904;47.814;11.134;2022-10-28T00:48:47;11.40;91.30
1812;DHT22;904;47.814;11.134;2022-10-28T00:51:18;11.40;90.70
1812;DHT22;904;47.814;11.134;2022-10-28T00:53:47;11.40;90.30
1812;DHT22;904;47.814;11.134;2022-10-28T00:56:17;11.30;90.00
1812;DHT22;904;47.814;11.134;2022-10-28T00:58:46;11.10;90.00
1812;DHT22;904;47.814;11.134;2022-10-28T01:01:16;11.10;90.20
1812;DHT22;904;47.814;11.134;2022-10-28T01:03:43;11.00;90.60
1812;DHT22;904;47.814;11.134;2022-10-28T01:06:13;11.00;90.90
1812;DHT22;904;47.814;11.134;2022-10-28T01:08:40;11.00;90.60
1812;DHT22;904;47.814;11.134;2022-10-28T01:17:16;10.90;90.70
1812;DHT22;904;47.814;11.134;2022-10-28T01:22:36;10.80;90.90
1812;DHT22;904;47.814;11.134;2022-10-28T01:25:31;10.90;91.30
1812;DHT22;904;47.814;11.134;2022-10-28T01:31:14;10.90;91.20
1812;DHT22;904;47.814;11.134;2022-10-28T01:33:49;10.90;91.10
1812;DHT22;904;47.814;11.134;2022-10-28T01:36:26;10.80;91.00
1812;DHT22;904;47.814;11.134;2022-10-28T01:39:07;10.80;90.70
1812;DHT22;904;47.814;11.134;2022-10-28T01:41:46;10.80;90.90
1812;DHT22;904;47.814;11.134;2022-10-28T01:44:21;10.90;91.10
1812;DHT22;904;47.814;11.134;2022-10-28T01:46:56;10.90;90.90
1812;DHT22;904;47.814;11.134;2022-10-28T01:49:30;10.80;90.80
1812;DHT22;904;47.814;11.134;2022-10-28T01:52:02;10.80;90.80
1812;DHT22;904;47.814;11.134;2022-10-28T01:54:32;10.80;90.80
1812;DHT22;904;47.814;11.134;2022-10-28T01:57:02;10.80;91.10
1812;DHT22;904;47.814;11.134;2022-10-28T01:59:32;10.80;91.40
1812;DHT22;904;47.814;11.134;2022-10-28T02:02:01;10.90;91.50
1812;DHT22;904;47.814;11.134;2022-10-28T02:04:28;10.90;91.40
1812;DHT22;904;47.814;11.134;2022-10-28T02:06:59;10.90;91.00
1812;DHT22;904;47.814;11.134;2022-10-28T02:09:38;10.90;91.30
1812;DHT22;904;47.814;11.134;2022-10-28T02:12:22;10.90;91.40
1812;DHT22;904;47.814;11.134;2022-10-28T02:15:13;10.90;91.30
1812;DHT22;904;47.814;11.134;2022-10-28T02:17:53;10.90;91.40
1812;DHT22;904;47.814;11.134;2022-10-28T02:20:31;11.00;91.50
1812;DHT22;904;47.814;11.134;2022-10-28T02:23:09;11.00;91.50
1812;DHT22;904;47.814;11.134;2022-10-28T02:25:41;11.00;91.70
1812;DHT22;904;47.814;11.134;2022-10-28T02:28:14;11.00;91.90
1812;DHT22;904;47.814;11.134;2022-10-28T02:30:46;11.10;91.80
1812;DHT22;904;47.814;11.134;2022-10-28T02:33:20;11.10;91.70
1812;DHT22;904;47.814;11.134;2022-10-28T02:35:51;11.10;91.60
1812;DHT22;904;47.814;11.134;2022-10-28T02:38:25;11.00;91.30
1812;DHT22;904;47.814;11.134;2022-10-28T02:40:57;11.00;91.00
1812;DHT22;904;47.814;11.134;2022-10-28T02:43:27;10.90;90.90
1812;DHT22;904;47.814;11.134;2022-10-28T02:45:58;10.90;91.00
1812;DHT22;904;47.814;11.134;2022-10-28T02:48:32;10.80;91.00
1812;DHT22;904;47.814;11.134;2022-10-28T02:51:05;10.80;90.90
1812;DHT22;904;47.814;11.134;2022-10-28T02:53:40;10.80;90.80
1812;DHT22;904;47.814;11.134;2022-10-28T02:56:13;10.70;90.70
1812;DHT22;904;47.814;11.134;2022-10-28T02:58:43;10.60;90.60
1812;DHT22;904;47.814;11.134;2022-10-28T03:01:11;10.60;90.70
1812;DHT22;904;47.814;11.134;2022-10-28T03:03:40;10.60;90.90
1812;DHT22;904;47.814;11.134;2022-10-28T03:06:08;10.50;91.20
1812;DHT22;904;47.814;11.134;2022-10-28T03:08:35;10.50;91.30
1812;DHT22;904;47.814;11.134;2022-10-28T03:11:06;10.40;91.50
1812;DHT22;904;47.814;11.134;2022-10-28T03:13:33;10.40;91.40
1812;DHT22;904;47.814;11.134;2022-10-28T03:16:00;10.40;91.40
1812;DHT22;904;47.814;11.134;2022-10-28T03:18:27;10.40;91.50
1812;DHT22;904;47.814;11.134;2022-10-28T03:20:56;10.40;91.60
1812;DHT22;904;47.814;11.134;2022-10-28T03:23:23;10.40;91.60
1812;DHT22;904;47.814;11.134;2022-10-28T03:25:51;10.30;91.70
1812;DHT22;904;47.814;11.134;2022-10-28T03:28:18;10.20;91.90
1812;DHT22;904;47.814;11.134;2022-10-28T03:30:45;10.20;92.10
1812;DHT22;904;47.814;11.134;2022-10-28T03:33:19;10.20;92.00
1812;DHT22;904;47.814;11.134;2022-10-28T03:35:46;10.10;92.30
1812;DHT22;904;47.814;11.134;2022-10-28T03:38:14;10.20;92.40
1812;DHT22;904;47.814;11.134;2022-10-28T03:40:41;10.10;92.30
1812;DHT22;904;47.814;11.134;2022-10-28T03:43:09;10.20;92.40
1812;DHT22;904;47.814;11.134;2022-10-28T03:45:36;10.20;92.30
1812;DHT22;904;47.814;11.134;2022-10-28T03:48:04;10.20;92.30
1812;DHT22;904;47.814;11.134;2022-10-28T03:50:31;10.20;92.30
1812;DHT22;904;47.814;11.134;2022-10-28T03:52:58;10.20;92.30
1812;DHT22;904;47.814;11.134;2022-10-28T03:55:27;10.30;92.70
1812;DHT22;904;47.814;11.134;2022-10-28T03:57:55;10.30;92.80
1812;DHT22;904;47.814;11.134;2022-10-28T04:00:27;10.30;92.80
1812;DHT22;904;47.814;11.134;2022-10-28T04:02:55;10.30;93.00
1812;DHT22;904;47.814;11.134;2022-10-28T04:05:22;10.30;92.40
1812;DHT22;904;47.814;11.134;2022-10-28T04:07:49;10.20;92.10
1812;DHT22;904;47.814;11.134;2022-10-28T04:10:18;10.20;92.00
1812;DHT22;904;47.814;11.134;2022-10-28T04:12:47;10.10;91.80
1812;DHT22;904;47.814;11.134;2022-10-28T04:15:14;10.10;92.10
1812;DHT22;904;47.814;11.134;2022-10-28T04:17:42;10.00;92.60
1812;DHT22;904;47.814;11.134;2022-10-28T04:20:09;9.90;93.40
1812;DHT22;904;47.814;11.134;2022-10-28T04:22:37;9.90;93.50
1812;DHT22;904;47.814;11.134;2022-10-28T04:25:06;9.80;93.40
1812;DHT22;904;47.814;11.134;2022-10-28T04:27:33;9.70;93.60
1812;DHT22;904;47.814;11.134;2022-10-28T04:30:04;9.70;93.70
1812;DHT22;904;47.814;11.134;2022-10-28T04:32:31;9.60;94.30
1812;DHT22;904;47.814;11.134;2022-10-28T04:35:03;9.60;94.40
1812;DHT22;904;47.814;11.134;2022-10-28T04:37:30;9.60;94.50
1812;DHT22;904;47.814;11.134;2022-10-28T04:39:58;9.60;94.60
1812;DHT22;904;47.814;11.134;2022-10-28T04:42:25;9.70;95.00
1812;DHT22;904;47.814;11.134;2022-10-28T04:44:53;9.70;95.20
1812;DHT22;904;47.814;11.134;2022-10-28T04:47:21;9.80;95.30
1812;DHT22;904;47.814;11.134;2022-10-28T04:49:48;9.80;95.30
1812;DHT22;904;47.814;11.134;2022-10-28T04:52:16;9.90;95.20
1812;DHT22;904;47.814;11.134;2022-10-28T04:54:43;9.90;95.10
1812;DHT22;904;47.814;11.134;2022-10-28T04:57:10;10.00;94.40
1812;DHT22;904;47.814;11.134;2022-10-28T04:59:37;10.00;94.10
1812;DHT22;904;47.814;11.134;2022-10-28T05:02:04;10.00;93.70
1812;DHT22;904;47.814;11.134;2022-10-28T05:04:36;10.00;93.60
1812;DHT22;904;47.814;11.134;2022-10-28T05:07:03;10.00;93.20
1812;DHT22;904;47.814;11.134;2022-10-28T05:09:31;10.00;92.80
1812;DHT22;904;47.814;11.134;2022-10-28T05:11:58;10.00;92.80
1812;DHT22;904;47.814;11.134;2022-10-28T05:14:27;9.90;93.30
1812;DHT22;904;47.814;11.134;2022-10-28T05:16:55;9.80;93.20
1812;DHT22;904;47.814;11.134;2022-10-28T05:19:22;9.80;93.40
1812;DHT22;904;47.814;11.134;2022-10-28T05:21:50;9.70;93.40
1812;DHT22;904;47.814;11.134;2022-10-28T05:24:17;9.60;93.50
1812;DHT22;904;47.814;11.134;2022-10-28T05:26:46;9.60;93.60
1812;DHT22;904;47.814;11.134;2022-10-28T05:29:15;9.50;93.40
1812;DHT22;904;47.814;11.134;2022-10-28T05:31:45;9.50;93.50
1812;DHT22;904;47.814;11.134;2022-10-28T05:34:13;9.50;93.50
1812;DHT22;904;47.814;11.134;2022-10-28T05:36:40;9.50;93.40
1812;DHT22;904;47.814;11.134;2022-10-28T05:39:09;9.40;93.60
1812;DHT22;904;47.814;11.134;2022-10-28T05:41:37;9.40;93.60
1812;DHT22;904;47.814;11.134;2022-10-28T05:44:06;9.50;93.70
1812;DHT22;904;47.814;11.134;2022-10-28T05:46:33;9.50;93.80
1812;DHT22;904;47.814;11.134;2022-10-28T05:49:01;9.50;93.90
1812;DHT22;904;47.814;11.134;2022-10-28T05:51:29;9.60;93.70
1812;DHT22;904;47.814;11.134;2022-10-28T05:53:56;9.50;93.60
1812;DHT22;904;47.814;11.134;2022-10-28T05:56:25;9.50;93.70
1812;DHT22;904;47.814;11.134;2022-10-28T05:58:54;9.50;93.70
1812;DHT22;904;47.814;11.134;2022-10-28T06:01:22;9.50;93.80
1812;DHT22;904;47.814;11.134;2022-10-28T06:03:49;9.50;93.90
1812;DHT22;904;47.814;11.134;2022-10-28T06:06:16;9.50;94.30
1812;DHT22;904;47.814;11.134;2022-10-28T06:08:43;9.60;94.10
1812;DHT22;904;47.814;11.134;2022-10-28T06:11:11;9.60;94.00
1812;DHT22;904;47.814;11.134;2022-10-28T06:13:39;9.70;94.00
1812;DHT22;904;47.814;11.134;2022-10-28T06:16:07;9.80;94.10
1812;DHT22;904;47.814;11.134;2022-10-28T06:18:34;9.90;94.20
1812;DHT22;904;47.814;11.134;2022-10-28T06:21:01;10.00;93.60
1812;DHT22;904;47.814;11.134;2022-10-28T06:23:29;10.10;93.30
1812;DHT22;904;47.814;11.134;2022-10-28T06:25:56;10.20;93.20
1812;DHT22;904;47.814;11.134;2022-10-28T06:28:24;10.30;93.00
1812;DHT22;904;47.814;11.134;2022-10-28T06:30:52;10.40;92.60
1812;DHT22;904;47.814;11.134;2022-10-28T06:33:20;10.50;92.80
1812;DHT22;904;47.814;11.134;2022-10-28T06:35:46;10.70;93.10
1812;DHT22;904;47.814;11.134;2022-10-28T06:38:14;10.80;92.90
1812;DHT22;904;47.814;11.134;2022-10-28T06:40:43;11.00;92.70
1812;DHT22;904;47.814;11.134;2022-10-28T06:43:11;11.20;92.60
1812;DHT22;904;47.814;11.134;2022-10-28T06:45:39;11.40;92.50
1812;DHT22;904;47.814;11.134;2022-10-28T06:48:09;11.50;92.20
1812;DHT22;904;47.814;11.134;2022-10-28T06:50:36;11.70;92.40
1812;DHT22;904;47.814;11.134;2022-10-28T06:53:08;11.90;92.40
1812;DHT22;904;47.814;11.134;2022-10-28T06:55:36;12.20;92.30
1812;DHT22;904;47.814;11.134;2022-10-28T06:58:03;12.50;92.10
1812;DHT22;904;47.814;11.134;2022-10-28T07:00:31;12.80;91.90
1812;DHT22;904;47.814;11.134;2022-10-28T07:02:59;13.00;90.90
1812;DHT22;904;47.814;11.134;2022-10-28T07:05:28;13.20;90.30
1812;DHT22;904;47.814;11.134;2022-10-28T07:07:55;13.40;90.20
1812;DHT22;904;47.814;11.134;2022-10-28T07:10:22;13.70;90.40
1812;DHT22;904;47.814;11.134;2022-10-28T07:12:52;14.10;90.20
1812;DHT22;904;47.814;11.134;2022-10-28T07:15:22;14.60;87.80
1812;DHT22;904;47.814;11.134;2022-10-28T07:17:51;14.90;84.60
1812;DHT22;904;47.814;11.134;2022-10-28T07:20:19;15.20;81.40
1812;DHT22;904;47.814;11.134;2022-10-28T07:22:48;15.50;81.50
1812;DHT22;904;47.814;11.134;2022-10-28T07:25:20;15.80;80.30
1812;DHT22;904;47.814;11.134;2022-10-28T07:27:47;16.20;80.50
1812;DHT22;904;47.814;11.134;2022-10-28T07:30:15;16.50;77.90
1812;DHT22;904;47.814;11.134;2022-10-28T07:32:42;17.00;76.40
1812;DHT22;904;47.814;11.134;2022-10-28T07:35:09;17.40;75.00
1812;DHT22;904;47.814;11.134;2022-10-28T07:37:37;17.90;72.40
1812;DHT22;904;47.814;11.134;2022-10-28T07:40:07;18.20;71.20
1812;DHT22;904;47.814;11.134;2022-10-28T07:42:34;18.50;69.00
1812;DHT22;904;47.814;11.134;2022-10-28T07:45:02;18.80;67.10
1812;DHT22;904;47.814;11.134;2022-10-28T07:47:29;19.10;66.70
1812;DHT22;904;47.814;11.134;2022-10-28T07:49:58;19.70;62.10
1812;DHT22;904;47.814;11.134;2022-10-28T07:52:25;20.20;61.60
1812;DHT22;904;47.814;11.134;2022-10-28T07:54:52;20.80;59.90
1812;DHT22;904;47.814;11.134;2022-10-28T07:57:20;21.50;58.30
1812;DHT22;904;47.814;11.134;2022-10-28T07:59:47;22.30;55.70
1812;DHT22;904;47.814;11.134;2022-10-28T08:02:16;22.80;53.20
1812;DHT22;904;47.814;11.134;2022-10-28T08:04:44;22.60;52.20
1812;DHT22;904;47.814;11.134;2022-10-28T08:07:11;22.50;53.20
1812;DHT22;904;47.814;11.134;2022-10-28T08:09:39;22.70;52.00
1812;DHT22;904;47.814;11.134;2022-10-28T08:12:07;22.60;51.90
1812;DHT22;904;47.814;11.134;2022-10-28T08:14:35;23.00;52.70
1812;DHT22;904;47.814;11.134;2022-10-28T08:17:02;23.60;52.80
1812;DHT22;904;47.814;11.134;2022-10-28T08:19:30;24.30;52.30
1812;DHT22;904;47.814;11.134;2022-10-28T08:21:57;24.90;49.40
1812;DHT22;904;47.814;11.134;2022-10-28T08:24:24;25.80;47.10
1812;DHT22;904;47.814;11.134;2022-10-28T08:26:50;26.60;45.80
1812;DHT22;904;47.814;11.134;2022-10-28T08:29:17;27.30;42.70
1812;DHT22;904;47.814;11.134;2022-10-28T08:31:46;27.00;41.60
1812;DHT22;904;47.814;11.134;2022-10-28T08:34:13;26.30;42.30
1812;DHT22;904;47.814;11.134;2022-10-28T08:36:40;25.60;43.40
1812;DHT22;904;47.814;11.134;2022-10-28T08:39:07;25.10;45.20
1812;DHT22;904;47.814;11.134;2022-10-28T08:41:40;24.70;46.90
1812;DHT22;904;47.814;11.134;2022-10-28T08:47:31;24.00;48.40
1812;DHT22;904;47.814;11.134;2022-10-28T08:50:11;23.70;49.40
1812;DHT22;904;47.814;11.134;2022-10-28T08:52:42;23.60;50.60
1812;DHT22;904;47.814;11.134;2022-10-28T08:55:14;23.60;51.10
1812;DHT22;904;47.814;11.134;2022-10-28T08:57:46;23.70;51.80
1812;DHT22;904;47.814;11.134;2022-10-28T09:00:20;24.10;51.00
1812;DHT22;904;47.814;11.134;2022-10-28T09:05:46;25.80;49.80
1812;DHT22;904;47.814;11.134;2022-10-28T09:08:20;26.80;47.20
1812;DHT22;904;47.814;11.134;2022-10-28T09:11:07;27.90;44.70
1812;DHT22;904;47.814;11.134;2022-10-28T09:13:46;28.80;42.90
1812;DHT22;904;47.814;11.134;2022-10-28T09:16:24;28.50;42.20
1812;DHT22;904;47.814;11.134;2022-10-28T09:18:56;28.10;41.80
1812;DHT22;904;47.814;11.134;2022-10-28T09:21:29;27.80;42.20
1812;DHT22;904;47.814;11.134;2022-10-28T09:23:58;27.80;42.90
1812;DHT22;904;47.814;11.134;2022-10-28T09:26:34;27.80;42.30
1812;DHT22;904;47.814;11.134;2022-10-28T09:29:26;28.00;41.80
1812;DHT22;904;47.814;11.134;2022-10-28T09:32:10;29.00;40.70
1812;DHT22;904;47.814;11.134;2022-10-28T09:34:44;30.90;39.50
1812;DHT22;904;47.814;11.134;2022-10-28T09:37:16;33.70;35.00
1812;DHT22;904;47.814;11.134;2022-10-28T09:39:46;35.80;30.80
1812;DHT22;904;47.814;11.134;2022-10-28T09:42:18;37.90;27.90
1812;DHT22;904;47.814;11.134;2022-10-28T09:44:50;39.00;25.70
1812;DHT22;904;47.814;11.134;2022-10-28T09:47:23;40.10;24.70
1812;DHT22;904;47.814;11.134;2022-10-28T09:49:56;40.90;23.50
1812;DHT22;904;47.814;11.134;2022-10-28T09:52:27;40.50;22.80
1812;DHT22;904;47.814;11.134;2022-10-28T09:54:57;39.70;23.60
1812;DHT22;904;47.814;11.134;2022-10-28T09:57:29;38.90;23.40
1812;DHT22;904;47.814;11.134;2022-10-28T09:59:57;38.50;24.50
1812;DHT22;904;47.814;11.134;2022-10-28T10:02:26;38.20;24.70
1812;DHT22;904;47.814;11.134;2022-10-28T10:04:56;37.90;25.40
1812;DHT22;904;47.814;11.134;2022-10-28T10:07:35;38.10;25.70
1812;DHT22;904;47.814;11.134;2022-10-28T10:10:12;38.60;25.20
1812;DHT22;904;47.814;11.134;2022-10-28T10:12:40;39.50;24.30
1812;DHT22;904;47.814;11.134;2022-10-28T10:15:12;41.00;24.20
1812;DHT22;904;47.814;11.134;2022-10-28T10:17:44;42.30;23.20
1812;DHT22;904;47.814;11.134;2022-10-28T10:20:17;44.00;21.60
1812;DHT22;904;47.814;11.134;2022-10-28T10:22:49;45.40;19.80
1812;DHT22;904;47.814;11.134;2022-10-28T10:25:25;46.60;18.70
1812;DHT22;904;47.814;11.134;2022-10-28T10:27:57;46.00;16.80
1812;DHT22;904;47.814;11.134;2022-10-28T10:30:30;44.70;19.00
1812;DHT22;904;47.814;11.134;2022-10-28T10:32:58;44.70;19.00
1812;DHT22;904;47.814;11.134;2022-10-28T10:35:28;44.00;18.40
1812;DHT22;904;47.814;11.134;2022-10-28T10:37:58;42.60;19.80
1812;DHT22;904;47.814;11.134;2022-10-28T10:40:27;41.30;20.40
1812;DHT22;904;47.814;11.134;2022-10-28T10:43:17;40.40;21.60
1812;DHT22;904;47.814;11.134;2022-10-28T10:45:50;41.00;22.90
1812;DHT22;904;47.814;11.134;2022-10-28T10:48:18;43.20;22.20
1812;DHT22;904;47.814;11.134;2022-10-28T10:50:50;45.30;19.80
1812;DHT22;904;47.814;11.134;2022-10-28T10:53:25;46.60;18.90
1812;DHT22;904;47.814;11.134;2022-10-28T10:55:57;47.80;17.40
1812;DHT22;904;47.814;11.134;2022-10-28T10:58:27;48.70;17.00
1812;DHT22;904;47.814;11.134;2022-10-28T11:00:58;48.90;15.80
1812;DHT22;904;47.814;11.134;2022-10-28T11:03:29;49.50;15.10
1812;DHT22;904;47.814;11.134;2022-10-28T11:05:59;50.40;14.00
1812;DHT22;904;47.814;11.134;2022-10-28T11:08:33;50.80;13.90
1812;DHT22;904;47.814;11.134;2022-10-28T11:11:12;50.80;12.20
1812;DHT22;904;47.814;11.134;2022-10-28T11:13:40;50.50;12.90
1812;DHT22;904;47.814;11.134;2022-10-28T11:16:17;50.00;13.00
1812;DHT22;904;47.814;11.134;2022-10-28T11:18:45;49.50;14.00
1812;DHT22;904;47.814;11.134;2022-10-28T11:21:34;49.50;13.60
1812;DHT22;904;47.814;11.134;2022-10-28T11:27:09;49.60;12.80
1812;DHT22;904;47.814;11.134;2022-10-28T11:29:39;49.40;12.00
1812;DHT22;904;47.814;11.134;2022-10-28T11:32:26;49.10;12.20
1812;DHT22;904;47.814;11.134;2022-10-28T11:35:07;49.90;12.60
1812;DHT22;904;47.814;11.134;2022-10-28T11:37:55;51.00;11.10
1812;DHT22;904;47.814;11.134;2022-10-28T11:40:31;51.00;10.80
1812;DHT22;904;47.814;11.134;2022-10-28T11:43:17;49.50;10.60
1812;DHT22;904;47.814;11.134;2022-10-28T11:45:49;47.80;11.90
1812;DHT22;904;47.814;11.134;2022-10-28T11:48:30;47.20;12.80
1812;DHT22;904;47.814;11.134;2022-10-28T11:51:17;47.20;12.20
1812;DHT22;904;47.814;11.134;2022-10-28T11:56:38;47.30;10.80
1812;DHT22;904;47.814;11.134;2022-10-28T11:59:31;45.60;12.70
1812;DHT22;904;47.814;11.134;2022-10-28T12:02:14;44.10;13.70
1812;DHT22;904;47.814;11.134;2022-10-28T12:04:52;42.80;13.60
1812;DHT22;904;47.814;11.134;2022-10-28T12:07:39;41.40;14.20
1812;DHT22;904;47.814;11.134;2022-10-28T12:10:18;40.60;15.00
1812;DHT22;904;47.814;11.134;2022-10-28T12:12:55;40.40;16.50
1812;DHT22;904;47.814;11.134;2022-10-28T12:15:31;40.20;16.60
1812;DHT22;904;47.814;11.134;2022-10-28T12:18:04;39.80;18.50
1812;DHT22;904;47.814;11.134;2022-10-28T12:20:38;39.10;18.60
1812;DHT22;904;47.814;11.134;2022-10-28T12:23:10;38.60;17.70
1812;DHT22;904;47.814;11.134;2022-10-28T12:25:42;38.70;19.30
1812;DHT22;904;47.814;11.134;2022-10-28T12:28:17;39.80;18.80
1812;DHT22;904;47.814;11.134;2022-10-28T12:30:46;41.30;17.40
1812;DHT22;904;47.814;11.134;2022-10-28T12:33:16;42.40;16.00
1812;DHT22;904;47.814;11.134;2022-10-28T12:35:47;43.10;15.80
1812;DHT22;904;47.814;11.134;2022-10-28T12:38:21;43.70;14.20
1812;DHT22;904;47.814;11.134;2022-10-28T12:40:54;44.10;13.80
1812;DHT22;904;47.814;11.134;2022-10-28T12:43:25;44.30;13.30
1812;DHT22;904;47.814;11.134;2022-10-28T12:45:56;44.40;14.10
1812;DHT22;904;47.814;11.134;2022-10-28T12:48:29;44.50;13.80
1812;DHT22;904;47.814;11.134;2022-10-28T12:51:01;44.50;12.50
1812;DHT22;904;47.814;11.134;2022-10-28T12:53:34;44.30;12.50
1812;DHT22;904;47.814;11.134;2022-10-28T12:56:07;44.10;13.30
1812;DHT22;904;47.814;11.134;2022-10-28T12:58:37;44.30;12.20
1812;DHT22;904;47.814;11.134;2022-10-28T13:01:08;44.30;12.40
1812;DHT22;904;47.814;11.134;2022-10-28T13:03:36;44.30;12.20
1812;DHT22;904;47.814;11.134;2022-10-28T13:06:22;44.10;12.60
1812;DHT22;904;47.814;11.134;2022-10-28T13:09:20;43.90;12.50
1812;DHT22;904;47.814;11.134;2022-10-28T13:12:19;43.70;12.20
1812;DHT22;904;47.814;11.134;2022-10-28T13:21:38;42.70;12.30
1812;DHT22;904;47.814;11.134;2022-10-28T13:24:15;41.50;11.90
1812;DHT22;904;47.814;11.134;2022-10-28T13:26:45;40.30;13.40
1812;DHT22;904;47.814;11.134;2022-10-28T13:29:25;39.00;15.30
1812;DHT22;904;47.814;11.134;2022-10-28T13:31:53;37.80;15.20
1812;DHT22;904;47.814;11.134;2022-10-28T13:34:29;36.90;16.60
1812;DHT22;904;47.814;11.134;2022-10-28T13:36:59;36.10;18.40
1812;DHT22;904;47.814;11.134;2022-10-28T13:39:40;35.30;18.10
1812;DHT22;904;47.814;11.134;2022-10-28T13:45:48;33.70;19.60
1812;DHT22;904;47.814;11.134;2022-10-28T13:48:46;32.90;20.30
1812;DHT22;904;47.814;11.134;2022-10-28T13:51:35;32.40;21.20
1812;DHT22;904;47.814;11.134;2022-10-28T13:54:23;32.00;21.30
1812;DHT22;904;47.814;11.134;2022-10-28T13:56:50;31.50;22.00
1812;DHT22;904;47.814;11.134;2022-10-28T13:59:29;31.20;21.40
1812;DHT22;904;47.814;11.134;2022-10-28T14:02:13;30.90;21.50
1812;DHT22;904;47.814;11.134;2022-10-28T14:04:53;30.70;21.90
1812;DHT22;904;47.814;11.134;2022-10-28T14:07:22;30.40;22.30
1812;DHT22;904;47.814;11.134;2022-10-28T14:09:54;30.20;22.60
1812;DHT22;904;47.814;11.134;2022-10-28T14:12:30;30.00;22.80
1812;DHT22;904;47.814;11.134;2022-10-28T14:15:17;29.80;22.80
1812;DHT22;904;47.814;11.134;2022-10-28T14:17:49;29.70;23.20
1812;DHT22;904;47.814;11.134;2022-10-28T14:20:30;29.50;24.50
1812;DHT22;904;47.814;11.134;2022-10-28T14:22:58;29.40;24.20
1812;DHT22;904;47.814;11.134;2022-10-28T14:26:00;29.30;24.00
1812;DHT22;904;47.814;11.134;2022-10-28T14:28:51;29.20;24.70
1812;DHT22;904;47.814;11.134;2022-10-28T14:31:36;29.10;25.90
1812;DHT22;904;47.814;11.134;2022-10-28T14:37:41;28.60;25.80
1812;DHT22;904;47.814;11.134;2022-10-28T14:40:31;28.50;25.90
1812;DHT22;904;47.814;11.134;2022-10-28T14:43:22;28.40;25.70
1812;DHT22;904;47.814;11.134;2022-10-28T14:46:01;28.30;26.00
1812;DHT22;904;47.814;11.134;2022-10-28T14:48:48;28.20;26.60
1812;DHT22;904;47.814;11.134;2022-10-28T14:51:18;28.10;26.70
1812;DHT22;904;47.814;11.134;2022-10-28T14:53:47;28.00;26.60
1812;DHT22;904;47.814;11.134;2022-10-28T14:56:20;27.80;27.80
1812;DHT22;904;47.814;11.134;2022-10-28T14:58:48;27.70;27.60
1812;DHT22;904;47.814;11.134;2022-10-28T15:01:22;27.60;28.30
1812;DHT22;904;47.814;11.134;2022-10-28T15:03:50;27.50;30.00
1812;DHT22;904;47.814;11.134;2022-10-28T15:06:23;27.30;31.00
1812;DHT22;904;47.814;11.134;2022-10-28T15:08:52;27.20;30.90
1812;DHT22;904;47.814;11.134;2022-10-28T15:11:20;27.00;31.20
1812;DHT22;904;47.814;11.134;2022-10-28T15:13:50;26.90;31.80
1812;DHT22;904;47.814;11.134;2022-10-28T15:16:21;26.70;35.30
1812;DHT22;904;47.814;11.134;2022-10-28T15:18:50;26.50;36.50
1812;DHT22;904;47.814;11.134;2022-10-28T15:21:20;26.20;38.40
1812;DHT22;904;47.814;11.134;2022-10-28T15:23:59;26.00;41.20
1812;DHT22;904;47.814;11.134;2022-10-28T15:26:26;25.90;40.20
1812;DHT22;904;47.814;11.134;2022-10-28T15:28:54;25.70;39.50
1812;DHT22;904;47.814;11.134;2022-10-28T15:31:21;25.60;39.40
1812;DHT22;904;47.814;11.134;2022-10-28T15:33:49;25.40;39.80
1812;DHT22;904;47.814;11.134;2022-10-28T15:36:17;25.30;40.20
1812;DHT22;904;47.814;11.134;2022-10-28T15:38:49;25.10;41.10
1812;DHT22;904;47.814;11.134;2022-10-28T15:41:39;24.90;42.20
1812;DHT22;904;47.814;11.134;2022-10-28T15:44:25;24.70;43.40
1812;DHT22;904;47.814;11.134;2022-10-28T15:46:54;24.50;45.60
1812;DHT22;904;47.814;11.134;2022-10-28T15:49:35;24.30;47.20
1812;DHT22;904;47.814;11.134;2022-10-28T15:52:34;24.10;48.30
1812;DHT22;904;47.814;11.134;2022-10-28T15:55:12;23.80;49.40
1812;DHT22;904;47.814;11.134;2022-10-28T15:57:52;23.50;50.70
1812;DHT22;904;47.814;11.134;2022-10-28T16:00:22;23.20;51.20
1812;DHT22;904;47.814;11.134;2022-10-28T16:02:55;23.10;50.60
1812;DHT22;904;47.814;11.134;2022-10-28T16:05:53;23.00;50.60
1812;DHT22;904;47.814;11.134;2022-10-28T16:08:23;22.80;50.50
1812;DHT22;904;47.814;11.134;2022-10-28T16:10:53;22.70;51.20
1812;DHT22;904;47.814;11.134;2022-10-28T16:13:25;22.60;51.80
1812;DHT22;904;47.814;11.134;2022-10-28T16:15:56;22.40;51.90
1812;DHT22;904;47.814;11.134;2022-10-28T16:18:25;22.30;52.00
1812;DHT22;904;47.814;11.134;2022-10-28T16:20:53;22.10;52.00
1812;DHT22;904;47.814;11.134;2022-10-28T16:23:22;22.00;52.30
1812;DHT22;904;47.814;11.134;2022-10-28T16:25:49;21.90;52.10
1812;DHT22;904;47.814;11.134;2022-10-28T16:28:21;21.80;52.90
1812;DHT22;904;47.814;11.134;2022-10-28T16:30:52;21.60;54.00
1812;DHT22;904;47.814;11.134;2022-10-28T16:33:24;21.50;53.10
1812;DHT22;904;47.814;11.134;2022-10-28T16:35:52;21.40;53.20
1812;DHT22;904;47.814;11.134;2022-10-28T16:38:19;21.30;53.50
1812;DHT22;904;47.814;11.134;2022-10-28T16:40:46;21.30;53.80
1812;DHT22;904;47.814;11.134;2022-10-28T16:43:16;21.20;53.70
1812;DHT22;904;47.814;11.134;2022-10-28T16:45:44;21.10;55.00
1812;DHT22;904;47.814;11.134;2022-10-28T16:48:14;21.00;59.60
1812;DHT22;904;47.814;11.134;2022-10-28T16:50:42;20.90;61.00
1812;DHT22;904;47.814;11.134;2022-10-28T16:53:13;20.80;61.90
1812;DHT22;904;47.814;11.134;2022-10-28T16:55:40;20.60;63.20
1812;DHT22;904;47.814;11.134;2022-10-28T16:58:08;20.50;64.40
1812;DHT22;904;47.814;11.134;2022-10-28T17:00:35;20.40;66.00
1812;DHT22;904;47.814;11.134;2022-10-28T17:03:03;20.20;69.70
1812;DHT22;904;47.814;11.134;2022-10-28T17:05:32;20.10;71.10
1812;DHT22;904;47.814;11.134;2022-10-28T17:07:59;20.00;73.00
1812;DHT22;904;47.814;11.134;2022-10-28T17:10:27;19.90;67.20